Time;durP1;ratioP1;P1;durP2;ratioP2;P2;SDS_P1;SDS_P2;PMS_P1;PMS_P2;Temp;Humidity;BMP_temperature;BMP_pressure;BME280_temperature;BME280_humidity;BME280_pressure;Samples;Min_cycle;Max_cycle;Signal;HPM_P1;HPM_P2
2023/10/10 00:00:54;;;;;;;18.77;6.13;;;;;;;11.12;100.00;99367.28;4999175;28;20026;-75
2023/10/10 00:03:21;;;;;;;17.00;5.68;;;;;;;11.21;100.00;99376.09;5005793;28;20094;-75
2023/10/10 00:05:46;;;;;;;13.15;5.35;;;;;;;10.95;100.00;99364.81;4999861;28;20029;-73
2023/10/10 00:08:11;;;;;;;21.25;6.50;;;;;;;11.15;100.00;99391.25;5005204;28;20130;-74
2023/10/10 00:10:45;;;;;;;16.23;5.70;;;;;;;11.11;100.00;99387.28;5005655;28;20037;-73
2023/10/10 00:13:12;;;;;;;20.17;5.03;;;;;;;11.07;100.00;99373.25;5002005;28;20026;-75
2023/10/10 00:15:40;;;;;;;21.80;5.47;;;;;;;10.97;100.00;99381.69;4994245;28;20032;-74
2023/10/10 00:18:11;;;;;;;23.65;6.55;;;;;;;10.97;100.00;99388.97;5001263;28;20032;-74
2023/10/10 00:20:44;;;;;;;19.90;5.20;;;;;;;10.92;100.00;99383.28;5000864;28;20030;-76
2023/10/10 00:23:17;;;;;;;26.02;5.90;;;;;;;10.84;100.00;99378.00;4997029;28;20068;-75
2023/10/10 00:25:44;;;;;;;16.70;5.82;;;;;;;11.01;100.00;99394.88;5002441;28;20081;-74
2023/10/10 00:28:20;;;;;;;17.55;5.80;;;;;;;10.82;100.00;99371.94;5003314;28;20022;-76
2023/10/10 00:30:46;;;;;;;20.00;5.25;;;;;;;10.88;100.00;99392.84;4999622;28;20105;-74
2023/10/10 00:33:16;;;;;;;18.08;5.70;;;;;;;10.89;100.00;99389.09;5000791;28;20037;-74
2023/10/10 00:35:42;;;;;;;17.65;5.80;;;;;;;10.78;100.00;99381.47;5002081;28;20386;-74
2023/10/10 00:40:39;;;;;;;17.77;5.65;;;;;;;10.80;100.00;99382.97;5012260;28;20038;-57
2023/10/10 00:43:12;;;;;;;20.33;5.00;;;;;;;10.78;100.00;99386.91;5011620;28;20225;-58
2023/10/10 00:45:37;;;;;;;18.13;5.35;;;;;;;10.67;100.00;99382.81;5015263;28;20057;-59
2023/10/10 00:48:04;;;;;;;21.15;5.80;;;;;;;10.74;100.00;99392.69;5007543;28;20026;-57
2023/10/10 00:50:34;;;;;;;17.75;5.30;;;;;;;10.68;100.00;99389.91;4993559;28;20033;-57
2023/10/10 00:53:00;;;;;;;17.88;4.93;;;;;;;10.74;100.00;99391.84;4994972;28;20117;-57
2023/10/10 00:55:33;;;;;;;17.55;5.63;;;;;;;10.59;100.00;99397.28;4995278;28;20470;-57
2023/10/10 00:58:00;;;;;;;14.70;5.43;;;;;;;10.58;100.00;99392.06;4990799;28;20367;-57
2023/10/10 01:00:29;;;;;;;18.33;5.40;;;;;;;10.58;100.00;99384.78;4994118;28;20030;-57
2023/10/10 01:03:20;;;;;;;16.70;5.43;;;;;;;10.52;100.00;99396.34;4991699;28;20030;-57
2023/10/10 01:05:52;;;;;;;22.38;5.13;;;;;;;10.59;100.00;99402.69;4978280;28;20045;-57
2023/10/10 01:08:23;;;;;;;15.75;4.47;;;;;;;10.54;100.00;99399.72;4991765;28;20050;-57
2023/10/10 01:10:56;;;;;;;13.90;4.57;;;;;;;10.49;100.00;99399.44;5003593;28;20030;-57
2023/10/10 01:13:21;;;;;;;16.30;4.65;;;;;;;10.48;100.00;99387.78;4993501;28;20474;-57
2023/10/10 01:15:56;;;;;;;15.25;4.32;;;;;;;10.50;100.00;99395.69;4995855;28;20033;-57
2023/10/10 01:18:24;;;;;;;14.85;4.22;;;;;;;10.52;100.00;99391.78;4998328;28;20050;-58
2023/10/10 01:20:49;;;;;;;12.27;4.35;;;;;;;10.45;100.00;99392.72;4997798;28;20073;-64
2023/10/10 01:23:17;;;;;;;16.00;5.20;;;;;;;10.41;100.00;99381.44;4992333;28;20034;-57
2023/10/10 01:25:44;;;;;;;22.92;4.80;;;;;;;10.38;100.00;99381.84;4982855;28;20037;-57
2023/10/10 01:28:33;;;;;;;15.25;5.05;;;;;;;10.44;100.00;99372.13;4994459;28;20058;-57
2023/10/10 01:31:03;;;;;;;15.40;4.18;;;;;;;10.32;100.00;99374.44;4986710;28;20026;-57
2023/10/10 01:33:36;;;;;;;14.52;4.80;;;;;;;10.23;100.00;99367.44;4994212;28;20049;-57
2023/10/10 01:36:03;;;;;;;13.90;4.78;;;;;;;10.31;100.00;99375.47;4994646;28;20089;-57
2023/10/10 01:41:48;;;;;;;14.32;5.25;;;;;;;10.12;100.00;99368.75;4993647;28;20030;-57
2023/10/10 01:44:23;;;;;;;17.30;5.07;;;;;;;10.08;100.00;99368.25;5009398;23;20034;-75
2023/10/10 01:46:52;;;;;;;17.55;5.20;;;;;;;9.98;100.00;99361.47;5068343;28;20033;-75
2023/10/10 01:49:21;;;;;;;18.98;5.13;;;;;;;9.95;100.00;99359.13;5079462;28;20025;-74
2023/10/10 01:51:54;;;;;;;15.77;6.00;;;;;;;9.95;100.00;99356.44;5079539;28;20049;-75
2023/10/10 01:54:20;;;;;;;17.52;6.13;;;;;;;9.94;100.00;99358.31;5066460;28;20356;-74
2023/10/10 01:56:46;;;;;;;21.10;5.45;;;;;;;9.95;100.00;99351.03;5064651;28;20040;-74
2023/10/10 01:59:19;;;;;;;19.52;5.57;;;;;;;9.98;100.00;99365.03;5064767;28;20037;-73
2023/10/10 02:01:47;;;;;;;16.77;6.38;;;;;;;10.01;100.00;99374.63;5064383;28;20036;-73
2023/10/10 02:04:12;;;;;;;16.52;6.07;;;;;;;9.87;100.00;99355.47;5057051;28;20061;-73
2023/10/10 02:06:40;;;;;;;25.48;5.95;;;;;;;9.93;100.00;99369.28;5058231;28;20037;-74
2023/10/10 02:09:12;;;;;;;23.13;6.65;;;;;;;9.93;100.00;99355.78;5063828;28;20126;-74
2023/10/10 02:11:39;;;;;;;15.23;6.20;;;;;;;9.98;100.00;99356.91;5063594;28;20035;-74
2023/10/10 02:14:11;;;;;;;17.02;5.40;;;;;;;10.00;100.00;99368.38;5063251;28;20296;-74
2023/10/10 02:16:40;;;;;;;19.25;5.65;;;;;;;9.97;100.00;99362.50;5069721;28;20051;-73
2023/10/10 02:19:15;;;;;;;16.73;5.68;;;;;;;9.97;100.00;99362.50;5071575;28;20020;-73
2023/10/10 02:21:47;;;;;;;12.70;5.32;;;;;;;9.92;100.00;99368.44;5072343;28;20017;-73
2023/10/10 02:24:39;;;;;;;14.98;4.97;;;;;;;9.95;100.00;99365.38;5071265;28;20033;-73
2023/10/10 02:27:06;;;;;;;11.57;4.70;;;;;;;9.86;100.00;99361.94;5045520;28;20033;-74
2023/10/10 02:32:10;;;;;;;14.50;4.45;;;;;;;9.87;100.00;99377.09;5064121;28;20052;-74
2023/10/10 02:34:36;;;;;;;20.00;5.45;;;;;;;9.88;100.00;99375.28;5063914;28;20047;-73
2023/10/10 02:39:46;;;;;;;19.60;5.75;;;;;;;9.90;100.00;99372.38;5063755;28;20036;-74
2023/10/10 02:42:18;;;;;;;16.90;5.82;;;;;;;9.90;100.00;99377.78;5062577;28;20244;-73
2023/10/10 02:44:46;;;;;;;14.20;5.30;;;;;;;9.73;100.00;99369.84;5062092;28;20401;-74
2023/10/10 02:47:13;;;;;;;10.98;4.57;;;;;;;9.75;100.00;99367.78;5063125;28;20104;-74
2023/10/10 02:49:42;;;;;;;14.55;5.20;;;;;;;9.66;100.00;99367.00;5063638;28;20092;-73
2023/10/10 02:52:07;;;;;;;13.40;4.87;;;;;;;9.69;100.00;99373.91;5062453;28;20049;-73
2023/10/10 02:54:34;;;;;;;19.77;5.00;;;;;;;9.63;100.00;99383.59;5063669;28;20199;-74
2023/10/10 02:59:51;;;;;;;12.20;5.17;;;;;;;9.64;100.00;99369.09;5063985;28;20074;-74
2023/10/10 03:02:29;;;;;;;18.13;5.28;;;;;;;9.61;100.00;99374.00;5062632;28;20303;-73
2023/10/10 03:07:28;;;;;;;16.13;4.68;;;;;;;9.66;100.00;99371.59;5063506;28;20084;-73
2023/10/10 03:12:43;;;;;;;12.20;4.47;;;;;;;9.61;100.00;99358.63;5068622;28;20028;-73
2023/10/10 03:15:13;;;;;;;13.52;4.50;;;;;;;9.55;100.00;99372.03;5065659;28;20028;-74
2023/10/10 03:18:04;;;;;;;12.63;4.68;;;;;;;9.55;100.00;99347.72;5063763;28;20025;-74
2023/10/10 03:25:47;;;;;;;14.95;4.63;;;;;;;9.40;100.00;99358.47;5063738;28;20029;-73
2023/10/10 03:28:20;;;;;;;12.20;4.85;;;;;;;9.40;100.00;99367.41;5049313;28;20026;-74
2023/10/10 03:31:46;;;;;;;13.38;4.60;;;;;;;9.34;100.00;99356.53;5063923;28;20087;-73
2023/10/10 03:34:10;;;;;;;17.58;4.85;;;;;;;9.16;100.00;99364.94;5056209;28;20043;-73
2023/10/10 03:36:44;;;;;;;15.57;4.47;;;;;;;9.08;100.00;99356.91;5063287;28;20033;-75
2023/10/10 03:39:41;;;;;;;18.17;4.78;;;;;;;9.14;100.00;99357.03;5062547;28;20049;-73
2023/10/10 05:23:35;;;;;;;11.45;4.85;;;;;;;8.48;100.00;99367.38;5076981;28;20059;-78
2023/10/10 05:26:02;;;;;;;16.45;5.60;;;;;;;8.46;100.00;99366.72;5074700;28;20025;-80
2023/10/10 05:28:32;;;;;;;14.77;5.50;;;;;;;8.45;100.00;99372.28;5078743;28;20031;-78
2023/10/10 05:30:58;;;;;;;15.50;5.88;;;;;;;8.34;100.00;99355.44;5080095;28;20009;-78
2023/10/10 05:33:26;;;;;;;19.27;6.25;;;;;;;8.27;100.00;99356.31;5079421;28;20017;-77
2023/10/10 05:35:57;;;;;;;16.95;6.43;;;;;;;8.54;100.00;99382.00;5078403;28;20024;-78
2023/10/10 05:38:23;;;;;;;24.35;6.55;;;;;;;8.52;100.00;99376.78;5077537;28;20027;-78
2023/10/10 05:40:48;;;;;;;19.05;6.07;;;;;;;8.49;100.00;99366.38;5076921;28;20044;-78
2023/10/10 05:43:17;;;;;;;19.45;6.00;;;;;;;8.52;100.00;99379.50;5079392;28;20028;-79
2023/10/10 05:45:43;;;;;;;23.15;6.72;;;;;;;8.63;100.00;99380.13;5073848;28;20025;-78
2023/10/10 05:48:10;;;;;;;21.63;7.07;;;;;;;8.76;100.00;99385.78;5075869;28;20048;-78
2023/10/10 05:50:37;;;;;;;21.40;5.97;;;;;;;8.70;100.00;99368.44;5068780;28;20029;-77
2023/10/10 05:53:06;;;;;;;15.07;6.72;;;;;;;8.81;100.00;99380.69;5064551;28;20020;-77
2023/10/10 05:55:34;;;;;;;17.93;6.27;;;;;;;8.99;100.00;99378.56;5076568;28;20112;-78
2023/10/10 05:58:02;;;;;;;15.95;6.65;;;;;;;9.15;100.00;99382.16;5070419;28;20029;-78
2023/10/10 06:00:37;;;;;;;19.95;6.22;;;;;;;9.38;100.00;99391.09;5074357;28;20032;-79
2023/10/10 06:03:07;;;;;;;20.50;7.07;;;;;;;9.61;100.00;99379.41;5076935;28;20024;-73
2023/10/10 06:05:35;;;;;;;18.00;6.10;;;;;;;9.85;100.00;99376.47;5068635;28;20031;-73
2023/10/10 06:08:01;;;;;;;18.02;4.78;;;;;;;10.00;100.00;99370.22;5069749;28;20080;-73
2023/10/10 06:10:31;;;;;;;16.50;5.47;;;;;;;10.26;100.00;99370.59;5076761;28;20036;-73
2023/10/10 06:12:58;;;;;;;16.58;4.75;;;;;;;10.69;100.00;99367.25;5072651;28;20021;-73
2023/10/10 06:15:23;;;;;;;17.02;4.93;;;;;;;11.40;100.00;99348.38;5074084;28;20036;-73
2023/10/10 06:17:49;;;;;;;18.20;4.93;;;;;;;12.11;100.00;99342.03;5061940;28;20029;-73
2023/10/10 06:20:21;;;;;;;17.85;5.05;;;;;;;12.56;100.00;99328.88;5068496;28;20247;-73
2023/10/10 06:22:47;;;;;;;14.75;4.80;;;;;;;12.83;100.00;99327.91;5071129;28;20051;-73
2023/10/10 06:25:17;;;;;;;14.90;5.53;;;;;;;12.89;100.00;99328.94;5072256;28;20029;-74
2023/10/10 06:27:45;;;;;;;16.27;5.65;;;;;;;13.38;100.00;99331.34;5069336;28;20016;-73
2023/10/10 06:30:17;;;;;;;15.32;5.07;;;;;;;13.71;100.00;99321.53;5069900;28;20029;-74
2023/10/10 06:32:47;;;;;;;9.88;4.47;;;;;;;14.42;100.00;99313.38;5071441;28;20095;-79
2023/10/10 06:37:41;;;;;;;25.38;5.65;;;;;;;15.57;100.00;99304.28;5074525;28;20087;-75
2023/10/10 06:40:10;;;;;;;14.38;4.65;;;;;;;16.11;100.00;99307.31;5079694;23;20255;-72
2023/10/10 06:42:36;;;;;;;18.55;6.00;;;;;;;16.70;100.00;99313.97;5054130;28;20028;-70
2023/10/10 06:45:10;;;;;;;12.57;4.63;;;;;;;16.46;100.00;99298.53;5051108;28;20368;-71
2023/10/10 06:47:39;;;;;;;15.02;4.88;;;;;;;16.43;100.00;99318.94;5049430;28;20036;-71
2023/10/10 06:50:11;;;;;;;22.45;4.88;;;;;;;16.61;100.00;99326.25;5059921;28;20025;-78
2023/10/10 06:52:37;;;;;;;17.30;5.43;;;;;;;16.87;100.00;99314.19;5056561;28;20298;-73
2023/10/10 06:55:10;;;;;;;17.20;5.10;;;;;;;16.94;100.00;99316.81;5053097;28;20031;-80
2023/10/10 06:57:38;;;;;;;12.00;5.13;;;;;;;16.84;100.00;99322.84;5051932;28;20028;-78
2023/10/10 07:02:47;;;;;;;;;;;;;;;17.31;100.00;99331.19;5056243;28;20038;-70
2023/10/10 07:05:15;;;;;;;16.33;5.18;;;;;;;18.87;100.00;99319.69;5056720;28;19908;-78
2023/10/10 07:07:41;;;;;;;19.08;5.00;;;;;;;20.44;100.00;99321.69;5055363;28;20040;-72
2023/10/10 07:10:09;;;;;;;12.85;4.60;;;;;;;20.34;100.00;99317.69;5051997;28;20029;-78
2023/10/10 07:12:35;;;;;;;18.90;4.65;;;;;;;20.89;100.00;99315.91;5052624;28;20070;-72
2023/10/10 07:15:06;;;;;;;17.27;4.90;;;;;;;20.90;100.00;99316.75;5049911;28;20076;-80
2023/10/10 07:17:32;;;;;;;18.88;4.78;;;;;;;21.27;100.00;99321.50;5064372;28;20029;-82
2023/10/10 07:22:36;;;;;;;18.70;5.30;;;;;;;21.85;93.40;99315.16;5053567;28;20036;-71
2023/10/10 07:25:09;;;;;;;16.05;5.57;;;;;;;22.73;88.14;99314.53;5057032;28;20037;-69
2023/10/10 07:27:39;;;;;;;15.15;4.93;;;;;;;24.05;74.30;99313.03;5051757;28;20033;-70
2023/10/10 07:30:16;;;;;;;15.15;5.07;;;;;;;23.93;73.64;99309.72;5052320;28;20310;-71
2023/10/10 07:32:48;;;;;;;20.25;4.97;;;;;;;23.19;77.52;99322.94;5044209;28;20064;-70
2023/10/10 07:35:15;;;;;;;19.05;5.10;;;;;;;23.08;78.04;99328.72;5053993;28;20021;-71
2023/10/10 07:37:44;;;;;;;16.27;4.88;;;;;;;23.25;78.19;99315.50;5051161;28;20021;-77
2023/10/10 07:42:49;;;;;;;17.17;4.88;;;;;;;23.85;79.38;99324.09;5052442;28;20253;-77
2023/10/10 07:45:15;;;;;;;13.65;4.57;;;;;;;23.24;79.44;99322.13;5051118;28;20036;-81
2023/10/10 07:50:34;;;;;;;14.23;4.70;;;;;;;24.35;72.39;99338.94;5052644;28;20024;-72
2023/10/10 07:53:03;;;;;;;19.20;5.53;;;;;;;26.25;64.70;99338.56;5049516;28;20016;-70
2023/10/10 07:55:33;;;;;;;18.73;4.97;;;;;;;25.43;63.54;99336.50;5044009;28;20025;-78
2023/10/10 07:58:06;;;;;;;17.38;5.20;;;;;;;25.45;62.48;99323.19;5056752;28;20021;-72
2023/10/10 08:00:38;;;;;;;17.30;5.55;;;;;;;25.44;64.88;99338.16;5047131;28;20071;-70
2023/10/10 08:03:06;;;;;;;16.20;5.72;;;;;;;24.82;65.99;99326.59;5057402;28;20025;-72
2023/10/10 08:05:32;;;;;;;17.85;5.45;;;;;;;25.56;67.29;99333.06;5050105;28;20032;-80
2023/10/10 08:07:58;;;;;;;14.32;5.43;;;;;;;25.39;66.23;99316.03;5058309;28;20024;-79
2023/10/10 08:10:38;;;;;;;18.48;5.63;;;;;;;24.75;67.95;99336.31;5066162;28;20341;-77
2023/10/10 08:13:10;;;;;;;13.13;5.00;;;;;;;24.85;70.01;99328.78;5056560;28;20028;-78
2023/10/10 08:15:50;;;;;;;17.67;4.88;;;;;;;25.50;69.44;99345.31;5069698;28;20033;-78
2023/10/10 08:18:41;;;;;;;21.60;5.45;;;;;;;25.51;65.46;99337.81;5065101;28;20067;-71
2023/10/10 08:23:31;;;;;;;20.45;5.57;;;;;;;26.16;64.39;99327.28;5057021;28;20029;-82
2023/10/10 08:25:57;;;;;;;18.00;5.03;;;;;;;26.37;62.38;99324.28;5063029;28;20025;-86
2023/10/10 08:28:25;;;;;;;16.60;5.13;;;;;;;27.29;60.94;99317.56;5064648;28;20053;-84
2023/10/10 08:30:52;;;;;;;17.95;5.90;;;;;;;28.73;57.72;99318.59;5052828;28;20033;-77
2023/10/10 08:33:18;;;;;;;10.00;4.60;;;;;;;28.28;56.85;99322.00;5055233;28;20028;-80
2023/10/10 08:35:44;;;;;;;12.55;5.25;;;;;;;29.35;54.43;99301.38;5060117;28;20229;-81
2023/10/10 08:38:13;;;;;;;16.95;5.07;;;;;;;29.36;54.14;99314.16;5064195;28;20304;-75
2023/10/10 08:40:40;;;;;;;19.45;5.32;;;;;;;28.79;55.47;99334.06;5064087;28;20055;-75
2023/10/10 08:43:07;;;;;;;14.60;4.78;;;;;;;28.88;54.60;99332.22;5063677;28;20033;-79
2023/10/10 08:45:43;;;;;;;13.90;4.80;;;;;;;28.82;55.31;99313.97;5067620;28;20028;-79
2023/10/10 08:48:13;;;;;;;17.40;4.85;;;;;;;27.78;56.32;99335.66;5062354;28;20218;-79
2023/10/10 08:50:42;;;;;;;19.23;5.10;;;;;;;27.17;59.79;99337.47;5061154;28;20290;-78
2023/10/10 08:53:12;;;;;;;18.30;5.05;;;;;;;28.31;56.83;99315.81;5058072;28;20025;-82
2023/10/10 08:55:41;;;;;;;16.75;5.35;;;;;;;29.37;55.38;99324.16;5066654;28;20021;-79
2023/10/10 08:58:08;;;;;;;16.67;5.35;;;;;;;29.70;53.10;99320.00;5061489;28;20032;-80
2023/10/10 09:00:35;;;;;;;16.75;4.57;;;;;;;29.73;52.33;99329.69;5053818;28;20033;-71
2023/10/10 09:03:00;;;;;;;19.33;4.63;;;;;;;30.32;50.00;99326.78;5057401;28;20029;-68
2023/10/10 09:05:28;;;;;;;23.30;6.20;;;;;;;30.03;51.40;99318.91;5058423;28;20029;-75
2023/10/10 09:07:55;;;;;;;22.17;5.55;;;;;;;30.55;50.31;99333.13;5058960;28;20222;-77
2023/10/10 09:10:28;;;;;;;16.25;5.30;;;;;;;29.72;51.39;99325.28;5057801;28;20029;-77
2023/10/10 09:12:55;;;;;;;16.95;4.45;;;;;;;31.07;50.28;99316.47;5061127;28;20016;-77
2023/10/10 09:15:22;;;;;;;17.53;5.33;;;;;;;31.42;46.37;99319.34;5047726;28;20025;-76
2023/10/10 09:17:48;;;;;;;17.38;4.50;;;;;;;31.75;47.55;99325.22;5048527;28;20048;-77
2023/10/10 09:20:30;;;;;;;17.33;4.78;;;;;;;32.08;46.36;99328.31;5087540;28;20048;-77
2023/10/10 09:23:11;;;;;;;13.95;4.80;;;;;;;31.22;46.97;99324.41;5061089;28;20036;-75
2023/10/10 09:28:21;;;;;;;23.45;5.50;;;;;;;30.57;48.14;99314.88;5066618;28;20036;-77
2023/10/10 09:30:58;;;;;;;17.15;4.88;;;;;;;33.08;45.82;99325.22;5059527;28;20029;-75
2023/10/10 09:35:58;;;;;;;20.00;4.32;;;;;;;32.71;44.91;99324.94;5055284;28;20027;-76
2023/10/10 09:38:27;;;;;;;17.70;5.10;;;;;;;32.70;44.03;99320.50;5047019;28;20029;-76
2023/10/10 09:41:11;;;;;;;13.73;4.53;;;;;;;32.84;42.79;99309.84;5053234;28;20059;-76
2023/10/10 09:55:53;;;;;;;15.63;4.50;;;;;;;34.00;42.68;99298.97;5061790;28;20027;-75
2023/10/10 10:09:37;;;;;;;14.88;4.70;;;;;;;35.91;37.53;99312.22;5050231;28;20028;-75
2023/10/10 10:12:11;;;;;;;13.15;5.30;;;;;;;35.59;37.90;99317.78;5030839;28;20067;-75
2023/10/10 10:14:54;;;;;;;13.45;4.25;;;;;;;35.71;36.56;99309.31;5059975;28;20071;-75
2023/10/10 10:17:54;;;;;;;15.60;4.63;;;;;;;34.43;37.16;99315.34;5047187;28;20326;-75
2023/10/10 10:20:43;;;;;;;22.42;4.40;;;;;;;34.61;36.74;99313.16;5049287;28;20025;-75
2023/10/10 10:23:17;;;;;;;12.57;4.15;;;;;;;35.84;35.23;99307.22;5057662;28;20021;-76
2023/10/10 10:25:46;;;;;;;15.25;4.50;;;;;;;36.68;34.31;99302.56;5054186;28;20428;-76
2023/10/10 10:28:14;;;;;;;13.63;4.50;;;;;;;35.45;34.33;99306.91;5057634;28;20025;-77
2023/10/10 10:30:47;;;;;;;12.40;4.50;;;;;;;34.25;35.93;99320.34;5055071;28;20089;-77
2023/10/10 10:33:13;;;;;;;16.40;4.93;;;;;;;33.77;37.05;99316.25;5061203;28;20036;-76
2023/10/10 10:35:48;;;;;;;15.13;4.75;;;;;;;33.78;37.11;99319.88;5046917;28;20083;-77
2023/10/10 10:38:13;;;;;;;13.82;4.57;;;;;;;33.34;37.59;99306.22;5064282;28;20174;-76
2023/10/10 10:43:16;;;;;;;10.68;4.03;;;;;;;34.74;35.70;99313.94;5055812;28;20052;-77
2023/10/10 10:45:45;;;;;;;10.52;4.47;;;;;;;33.60;35.88;99291.16;5060208;28;20016;-77
2023/10/10 10:48:30;;;;;;;13.70;3.90;;;;;;;33.65;36.31;99312.59;5051098;28;20017;-76
2023/10/10 10:51:25;;;;;;;15.75;4.70;;;;;;;33.32;36.89;99308.53;5050915;28;20044;-76
2023/10/10 10:53:56;;;;;;;17.45;4.78;;;;;;;33.31;37.68;99303.28;5057974;28;20037;-76
2023/10/10 11:01:28;;;;;;;13.50;5.20;;;;;;;34.67;36.44;99292.06;5053439;28;20191;-76
2023/10/10 11:03:55;;;;;;;14.65;4.13;;;;;;;34.58;35.65;99296.97;5055437;28;20047;-77
2023/10/10 11:06:24;;;;;;;13.13;4.35;;;;;;;34.14;37.50;99279.88;5045415;28;20083;-77
2023/10/10 11:14:00;;;;;;;11.30;3.97;;;;;;;34.89;35.78;99284.31;5055584;28;20016;-77
2023/10/10 11:16:39;;;;;;;11.45;4.43;;;;;;;35.88;35.49;99273.53;5047711;28;20341;-76
2023/10/10 11:21:54;;;;;;;12.95;4.30;;;;;;;34.09;37.12;99263.25;5048318;28;20037;-77
2023/10/10 11:24:25;;;;;;;15.73;3.95;;;;;;;35.15;35.37;99260.59;5060994;28;20044;-76
2023/10/10 11:29:45;;;;;;;15.13;4.68;;;;;;;34.31;37.26;99266.75;5060862;28;20041;-76
2023/10/10 11:32:36;;;;;;;14.95;3.92;;;;;;;34.84;36.81;99262.06;5043998;28;20025;-76
2023/10/10 11:35:17;;;;;;;15.60;4.72;;;;;;;33.98;36.67;99250.78;5043162;28;20085;-76
2023/10/10 11:37:48;;;;;;;22.02;4.40;;;;;;;32.94;37.53;99247.78;5061441;28;20203;-76
2023/10/10 11:42:55;;;;;;;15.07;4.28;;;;;;;33.77;36.13;99243.28;5054053;28;20028;-75
2023/10/10 11:45:26;;;;;;;15.55;5.10;;;;;;;34.29;35.88;99232.56;5058750;28;20029;-75
2023/10/10 11:47:52;;;;;;;16.63;4.72;;;;;;;33.70;37.41;99243.03;5044579;28;20059;-75
2023/10/10 11:50:22;;;;;;;14.18;4.47;;;;;;;34.96;36.05;99231.09;5054223;28;20025;-75
2023/10/10 11:52:58;;;;;;;16.13;4.65;;;;;;;35.04;34.90;99226.50;5044020;28;20033;-76
2023/10/10 11:55:28;;;;;;;13.23;4.28;;;;;;;34.87;35.10;99219.16;5053875;28;20024;-76
2023/10/10 11:58:07;;;;;;;12.60;3.90;;;;;;;33.01;36.25;99227.63;5045496;28;20066;-76
2023/10/10 12:00:42;;;;;;;12.32;4.32;;;;;;;33.73;36.20;99233.91;5071480;28;20053;-76
2023/10/10 12:03:31;;;;;;;14.98;4.30;;;;;;;32.41;37.21;99218.47;5057348;28;20052;-76
2023/10/10 12:05:59;;;;;;;11.32;4.30;;;;;;;33.68;37.83;99214.47;5044177;28;20029;-76
2023/10/10 12:08:24;;;;;;;10.15;4.38;;;;;;;33.82;36.92;99223.41;5051521;28;20083;-76
2023/10/10 12:11:04;;;;;;;16.83;4.90;;;;;;;32.60;36.95;99217.22;5052903;28;20068;-70
2023/10/10 12:15:55;;;;;;;13.77;3.90;;;;;;;33.13;36.99;99219.28;5055702;28;20048;-69
2023/10/10 12:18:21;;;;;;;17.27;4.43;;;;;;;32.84;37.35;99214.56;5057944;28;20293;-69
2023/10/10 12:20:46;;;;;;;17.45;3.88;;;;;;;33.31;37.23;99211.53;5054952;28;20044;-70
2023/10/10 12:23:13;;;;;;;16.92;5.03;;;;;;;32.06;38.45;99203.81;5051288;28;20092;-73
2023/10/10 12:25:41;;;;;;;15.88;5.03;;;;;;;31.46;38.80;99205.66;5048887;28;20048;-70
2023/10/10 12:28:09;;;;;;;15.00;4.70;;;;;;;30.94;40.03;99209.31;5042149;28;20045;-73
2023/10/10 12:33:16;;;;;;;12.27;4.55;;;;;;;30.95;39.81;99205.38;5178420;23;20061;-72
2023/10/10 12:35:46;;;;;;;16.58;4.45;;;;;;;30.03;40.89;99204.50;5028554;28;20071;-73
2023/10/10 12:38:15;;;;;;;13.48;4.30;;;;;;;29.86;41.12;99194.91;5035494;28;20188;-76
2023/10/10 12:40:43;;;;;;;12.25;4.45;;;;;;;30.28;40.75;99198.19;5024721;28;20014;-77
2023/10/10 12:43:11;;;;;;;17.73;5.85;;;;;;;30.68;39.64;99189.72;5029312;28;20021;-77
2023/10/10 12:45:37;;;;;;;15.50;4.93;;;;;;;31.11;38.51;99183.31;5039417;23;20014;-75
2023/10/10 12:48:04;;;;;;;18.70;5.07;;;;;;;30.77;38.97;99176.56;5054620;28;20410;-75
2023/10/10 12:50:30;;;;;;;10.73;4.40;;;;;;;31.58;38.78;99183.41;5049438;28;20305;-78
2023/10/10 12:53:07;;;;;;;13.93;4.45;;;;;;;31.66;38.19;99171.38;5055022;28;20043;-73
2023/10/10 12:55:34;;;;;;;16.92;4.68;;;;;;;31.61;37.88;99176.34;5052691;28;20360;-78
2023/10/10 12:58:08;;;;;;;17.25;5.07;;;;;;;31.30;37.77;99170.97;5043843;28;20088;-77
2023/10/10 13:00:34;;;;;;;15.45;4.78;;;;;;;31.00;38.54;99168.88;5043056;28;20021;-85
2023/10/10 13:02:59;;;;;;;15.00;4.50;;;;;;;31.97;38.16;99166.69;5035255;28;20037;-78
2023/10/10 13:05:27;;;;;;;12.35;4.60;;;;;;;33.04;36.74;99168.09;5041751;28;20262;-79
2023/10/10 13:07:55;;;;;;;16.33;5.80;;;;;;;33.04;35.81;99165.31;5042929;28;20318;-81
2023/10/10 13:10:26;;;;;;;17.63;4.70;;;;;;;32.47;36.29;99161.13;5048641;28;20033;-79
2023/10/10 13:12:52;;;;;;;18.60;4.88;;;;;;;31.94;37.10;99164.53;5038927;28;20029;-81
2023/10/10 13:15:18;;;;;;;14.45;4.75;;;;;;;32.01;36.97;99171.25;5037057;28;20030;-76
2023/10/10 13:20:30;;;;;;;14.25;5.03;;;;;;;32.23;36.20;99161.75;5038272;28;20108;-87
2023/10/10 13:22:55;;;;;;;19.63;5.68;;;;;;;31.65;37.32;99164.16;5044953;28;20318;-88
2023/10/10 13:25:21;;;;;;;16.35;5.32;;;;;;;31.27;38.16;99160.44;5039947;28;20074;-80
2023/10/10 13:27:48;;;;;;;16.20;5.38;;;;;;;31.13;37.64;99155.88;5038362;28;20021;-80
2023/10/10 13:30:13;;;;;;;17.08;5.15;;;;;;;31.33;37.86;99171.09;5039319;28;20028;-72
2023/10/10 13:32:41;;;;;;;12.90;4.25;;;;;;;31.52;37.71;99159.59;5040389;28;20029;-77
2023/10/10 13:35:08;;;;;;;15.40;5.53;;;;;;;31.06;37.86;99174.28;5028745;28;20047;-77
2023/10/10 13:37:34;;;;;;;20.35;5.53;;;;;;;30.24;38.74;99165.69;5036806;28;20385;-77
2023/10/10 13:39:59;;;;;;;9.70;5.05;;;;;;;30.90;38.44;99176.78;5033915;28;20041;-71
2023/10/10 13:42:24;;;;;;;14.95;5.22;;;;;;;30.62;39.55;99159.50;5034249;28;20017;-70
2023/10/10 13:44:50;;;;;;;23.85;5.07;;;;;;;30.31;39.98;99164.06;5042525;28;20250;-69
2023/10/10 13:47:16;;;;;;;18.05;5.93;;;;;;;29.85;39.68;99165.38;5036241;28;20025;-69
2023/10/10 13:49:45;;;;;;;12.50;4.75;;;;;;;29.80;39.64;99168.31;5041863;28;20053;-71
2023/10/10 13:52:16;;;;;;;15.35;5.50;;;;;;;30.12;39.50;99166.28;5031357;28;20048;-70
2023/10/10 13:54:41;;;;;;;16.48;5.40;;;;;;;30.28;39.59;99156.31;5033013;28;20022;-70
2023/10/10 13:57:07;;;;;;;20.58;5.15;;;;;;;30.23;39.47;99161.22;5033228;28;20261;-70
2023/10/10 13:59:33;;;;;;;13.98;4.78;;;;;;;29.65;40.36;99163.16;5032986;28;20025;-70
2023/10/10 14:02:03;;;;;;;21.27;5.07;;;;;;;29.74;40.06;99149.22;5040111;28;20315;-70
2023/10/10 14:04:29;;;;;;;13.00;4.88;;;;;;;29.76;39.72;99156.13;5042227;28;20107;-70
2023/10/10 14:07:00;;;;;;;17.13;4.85;;;;;;;29.95;40.35;99155.06;5037627;28;20322;-70
2023/10/10 14:09:31;;;;;;;14.38;5.20;;;;;;;30.00;40.05;99150.16;5039947;28;20033;-70
2023/10/10 14:12:02;;;;;;;22.38;5.65;;;;;;;30.35;39.75;99134.34;5044970;28;20334;-70
2023/10/10 14:14:27;;;;;;;15.30;5.07;;;;;;;30.02;39.92;99141.47;5028572;28;20022;-70
2023/10/10 14:16:53;;;;;;;15.23;5.32;;;;;;;29.61;40.50;99143.44;5030106;28;20089;-70
2023/10/10 14:19:18;;;;;;;13.52;5.15;;;;;;;29.97;39.99;99144.41;5041742;28;20066;-70
2023/10/10 14:21:43;;;;;;;13.20;4.85;;;;;;;29.97;39.51;99139.63;5040172;28;20017;-70
2023/10/10 14:24:12;;;;;;;14.48;5.30;;;;;;;30.06;39.95;99136.88;5027361;28;20037;-70
2023/10/10 14:26:38;;;;;;;24.42;5.80;;;;;;;30.13;39.49;99140.03;5034503;28;20037;-70
2023/10/10 14:29:08;;;;;;;16.77;5.60;;;;;;;30.20;39.42;99142.31;5033726;28;20025;-70
2023/10/10 14:31:34;;;;;;;15.10;5.03;;;;;;;30.08;39.47;99141.00;5030637;28;20029;-72
2023/10/10 14:34:02;;;;;;;18.20;5.38;;;;;;;30.67;39.85;99140.59;5040407;28;20029;-72
2023/10/10 14:36:28;;;;;;;12.85;5.18;;;;;;;31.09;38.93;99126.94;5035186;28;20025;-72
2023/10/10 14:38:53;;;;;;;15.30;5.28;;;;;;;30.69;38.89;99134.69;5040807;28;20025;-72
2023/10/10 14:41:20;;;;;;;18.98;5.40;;;;;;;30.84;38.44;99133.38;5034492;28;20390;-73
2023/10/10 14:43:50;;;;;;;19.00;5.20;;;;;;;30.57;38.98;99138.13;5029330;28;20026;-73
2023/10/10 14:46:21;;;;;;;17.40;5.38;;;;;;;30.57;38.92;99129.75;5033169;28;20033;-72
2023/10/10 14:49:00;;;;;;;14.15;5.30;;;;;;;30.89;38.90;99125.66;5037436;28;20417;-73
2023/10/10 14:51:33;;;;;;;14.98;5.95;;;;;;;30.91;38.72;99130.91;5039629;28;20315;-73
2023/10/10 14:54:12;;;;;;;18.80;5.60;;;;;;;30.30;39.07;99130.88;5034192;28;20057;-73
2023/10/10 14:56:45;;;;;;;14.10;5.45;;;;;;;29.79;40.76;99122.06;5041386;28;20029;-73